createdAt,value
2023-01-25T00:00:50.142Z,11.10
2023-01-25T00:01:50.162Z,11.20
2023-01-25T00:02:50.222Z,10.90
2023-01-25T00:03:50.117Z,11.30
2023-01-25T00:04:50.091Z,10.90
2023-01-25T00:05:50.074Z,10.60
2023-01-25T00:06:50.060Z,10.90
2023-01-25T00:07:50.053Z,11.00
2023-01-25T00:08:50.054Z,11.70
2023-01-25T00:09:50.052Z,12.10
2023-01-25T00:10:50.014Z,13.00
2023-01-25T00:11:50.024Z,12.50
2023-01-25T00:12:49.983Z,14.50
2023-01-25T00:13:49.990Z,11.40
2023-01-25T00:14:49.962Z,13.20
2023-01-25T00:15:49.952Z,11.60
2023-01-25T00:16:50.021Z,12.20
2023-01-25T00:17:49.920Z,11.20
2023-01-25T00:18:49.933Z,12.20
2023-01-25T00:19:49.906Z,11.00
2023-01-25T00:20:49.889Z,12.40
2023-01-25T00:21:49.881Z,12.20
2023-01-25T00:22:49.855Z,11.80
2023-01-25T00:23:49.943Z,11.90
2023-01-25T00:24:49.829Z,11.30
2023-01-25T00:25:49.847Z,13.00
2023-01-25T00:26:49.814Z,13.20
2023-01-25T00:27:49.803Z,12.30
2023-01-25T00:28:49.799Z,11.00
2023-01-25T00:29:49.783Z,10.40
2023-01-25T00:30:49.760Z,10.80
2023-01-25T00:31:49.884Z,11.50
2023-01-25T00:32:49.855Z,11.70
2023-01-25T00:33:49.740Z,12.60
2023-01-25T00:34:49.722Z,11.50
2023-01-25T00:35:49.699Z,11.10
2023-01-25T00:36:49.694Z,12.00
2023-01-25T00:37:49.694Z,12.20
2023-01-25T00:38:49.656Z,11.40
2023-01-25T00:39:49.678Z,11.50
2023-01-25T00:40:49.659Z,11.90
2023-01-25T00:41:49.649Z,11.70
2023-01-25T00:42:49.614Z,12.40
2023-01-25T00:43:49.607Z,12.10
2023-01-25T00:44:49.642Z,12.40
2023-01-25T00:45:49.619Z,11.80
2023-01-25T00:46:49.558Z,11.40
2023-01-25T00:47:49.544Z,12.80
2023-01-25T00:48:49.531Z,11.50
2023-01-25T00:49:49.534Z,11.80
2023-01-25T00:50:49.507Z,11.70
2023-01-25T00:51:49.506Z,11.20
2023-01-25T00:52:49.482Z,12.70
2023-01-25T00:53:49.467Z,10.80
2023-01-25T00:54:49.488Z,12.20
2023-01-25T00:55:49.457Z,12.10
2023-01-25T00:56:49.427Z,12.10
2023-01-25T00:57:49.439Z,13.20
2023-01-25T00:58:49.407Z,11.60
2023-01-25T00:59:49.405Z,11.60
2023-01-25T01:00:49.457Z,11.20
2023-01-25T01:01:49.368Z,11.40
2023-01-25T01:02:49.354Z,11.60
2023-01-25T01:03:49.351Z,11.80
2023-01-25T01:04:49.445Z,11.80
2023-01-25T01:05:49.318Z,11.80
2023-01-25T01:06:49.304Z,12.60
2023-01-25T01:07:49.305Z,11.60
2023-01-25T01:08:49.282Z,10.80
2023-01-25T01:09:49.297Z,12.40
2023-01-25T01:10:49.255Z,13.20
2023-01-25T01:11:49.241Z,12.20
2023-01-25T01:12:49.227Z,13.30
2023-01-25T01:13:49.244Z,12.80
2023-01-25T01:14:49.216Z,13.10
2023-01-25T01:15:49.192Z,12.20
2023-01-25T01:16:49.246Z,12.10
2023-01-25T01:17:49.179Z,12.40
2023-01-25T01:18:49.148Z,13.10
2023-01-25T01:19:49.154Z,12.70
2023-01-25T01:20:49.135Z,10.70
2023-01-25T01:21:49.114Z,11.80
2023-01-25T01:22:49.106Z,11.60
2023-01-25T01:23:49.165Z,12.60
2023-01-25T01:24:49.089Z,11.80
2023-01-25T01:25:49.071Z,12.70
2023-01-25T01:26:49.064Z,12.70
2023-01-25T01:27:49.039Z,12.20
2023-01-25T01:28:49.038Z,12.70
2023-01-25T01:29:49.062Z,13.10
2023-01-25T01:30:48.999Z,13.50
2023-01-25T01:31:49.090Z,13.30
2023-01-25T01:32:49.095Z,13.70
2023-01-25T01:33:48.963Z,13.40
2023-01-25T01:34:48.945Z,13.50
2023-01-25T01:35:48.950Z,14.90
2023-01-25T01:36:48.926Z,14.40
2023-01-25T01:37:48.911Z,14.50
2023-01-25T01:38:48.897Z,13.50
2023-01-25T01:39:48.883Z,14.00
2023-01-25T01:40:48.883Z,13.00
2023-01-25T01:41:48.860Z,13.70
2023-01-25T01:42:48.848Z,13.60
2023-01-25T01:43:48.836Z,19.60
2023-01-25T01:44:48.822Z,35.60
2023-01-25T01:45:48.885Z,45.80
2023-01-25T01:46:48.796Z,38.80
2023-01-25T01:47:48.790Z,34.80
2023-01-25T01:48:48.773Z,28.70
2023-01-25T01:49:48.755Z,16.30
2023-01-25T01:50:48.780Z,18.10
2023-01-25T01:51:48.740Z,24.40
2023-01-25T01:52:48.720Z,45.10
2023-01-25T01:53:48.705Z,57.10
2023-01-25T01:54:48.701Z,42.60
2023-01-25T01:55:48.683Z,34.50
2023-01-25T01:56:48.683Z,28.90
2023-01-25T01:57:48.652Z,27.80
2023-01-25T01:58:48.646Z,21.30
2023-01-25T01:59:48.641Z,19.70
2023-01-25T02:00:48.617Z,18.10
2023-01-25T02:01:48.641Z,18.00
2023-01-25T02:02:48.629Z,15.90
2023-01-25T02:03:48.580Z,15.10
2023-01-25T02:04:48.573Z,16.30
2023-01-25T02:05:48.551Z,15.40
2023-01-25T02:06:48.551Z,15.20
2023-01-25T02:07:48.530Z,15.00
2023-01-25T02:08:48.534Z,14.50
2023-01-25T02:09:48.505Z,14.20
2023-01-25T02:10:48.485Z,13.80
2023-01-25T02:11:48.489Z,13.70
2023-01-25T02:12:48.464Z,14.00
2023-01-25T02:13:48.454Z,12.50
2023-01-25T02:14:48.435Z,12.60
2023-01-25T02:15:48.471Z,14.10
2023-01-25T02:16:48.432Z,13.10
2023-01-25T02:17:48.423Z,14.10
2023-01-25T02:18:48.389Z,14.40
2023-01-25T02:19:48.378Z,14.20
2023-01-25T02:20:48.361Z,12.80
2023-01-25T02:21:48.385Z,12.60
2023-01-25T02:22:48.337Z,14.70
2023-01-25T02:23:48.386Z,13.80
2023-01-25T02:24:48.311Z,15.30
2023-01-25T02:25:48.307Z,14.20
2023-01-25T02:26:48.309Z,15.50
2023-01-25T02:27:48.274Z,15.00
2023-01-25T02:28:48.260Z,15.80
2023-01-25T02:29:48.246Z,15.70
2023-01-25T02:30:48.331Z,15.10
2023-01-25T02:31:48.390Z,15.40
2023-01-25T02:32:48.210Z,17.00
2023-01-25T02:33:48.219Z,15.90
2023-01-25T02:34:48.192Z,16.00
2023-01-25T02:35:48.173Z,13.60
2023-01-25T02:36:48.183Z,14.90
2023-01-25T02:37:48.149Z,14.90
2023-01-25T02:38:48.138Z,16.00
2023-01-25T02:39:48.127Z,16.20
2023-01-25T02:40:48.111Z,14.70
2023-01-25T02:41:48.128Z,14.60
2023-01-25T02:42:48.102Z,15.60
2023-01-25T02:43:48.072Z,14.80
2023-01-25T02:44:48.058Z,14.30
2023-01-25T02:45:48.093Z,14.70
2023-01-25T02:46:48.080Z,15.10
2023-01-25T02:47:48.046Z,14.80
2023-01-25T02:48:48.007Z,14.00
2023-01-25T02:49:48.013Z,14.30
2023-01-25T02:50:47.982Z,14.80
2023-01-25T02:51:47.978Z,14.00
2023-01-25T02:52:47.967Z,14.50
2023-01-25T02:53:47.942Z,13.50
2023-01-25T02:54:47.924Z,13.60
2023-01-25T02:55:47.915Z,13.10
2023-01-25T02:56:47.902Z,13.30
2023-01-25T02:57:47.901Z,13.90
2023-01-25T02:58:47.877Z,13.50
2023-01-25T02:59:47.873Z,12.80
2023-01-25T03:00:47.848Z,13.40
2023-01-25T03:01:47.923Z,14.20
2023-01-25T03:02:47.919Z,14.80
2023-01-25T03:03:47.818Z,14.50
2023-01-25T03:04:47.808Z,14.10
2023-01-25T03:05:47.816Z,15.00
2023-01-25T03:06:47.779Z,14.00
2023-01-25T03:07:47.792Z,14.80
2023-01-25T03:08:47.759Z,13.50
2023-01-25T03:09:47.737Z,14.80
2023-01-25T03:10:47.723Z,17.30
2023-01-25T03:11:47.710Z,15.40
2023-01-25T03:12:47.714Z,15.20
2023-01-25T03:13:47.687Z,15.50
2023-01-25T03:14:47.668Z,15.70
2023-01-25T03:15:47.665Z,15.20
2023-01-25T03:16:47.650Z,14.50
2023-01-25T03:17:47.650Z,15.20
2023-01-25T03:18:47.618Z,15.30
2023-01-25T03:19:47.615Z,15.90
2023-01-25T03:20:47.592Z,15.70
2023-01-25T03:21:47.613Z,15.60
2023-01-25T03:22:47.585Z,15.60
2023-01-25T03:23:47.582Z,14.20
2023-01-25T03:24:47.559Z,16.80
2023-01-25T03:25:47.530Z,15.30
2023-01-25T03:26:47.520Z,16.20
2023-01-25T03:27:47.525Z,16.70
2023-01-25T03:28:47.515Z,16.70
2023-01-25T03:29:47.485Z,17.10
2023-01-25T03:30:47.471Z,15.60
2023-01-25T03:31:47.590Z,17.20
2023-01-25T03:32:47.461Z,16.50
2023-01-25T03:33:47.435Z,18.50
2023-01-25T03:34:47.420Z,17.60
2023-01-25T03:35:47.446Z,19.50
2023-01-25T03:36:47.398Z,20.00
2023-01-25T03:37:47.417Z,16.10
2023-01-25T03:38:47.368Z,16.70
2023-01-25T03:39:47.361Z,17.80
2023-01-25T03:40:47.343Z,16.80
2023-01-25T03:41:47.330Z,15.00
2023-01-25T03:42:47.333Z,17.30
2023-01-25T03:43:47.306Z,16.70
2023-01-25T03:44:47.295Z,17.40
2023-01-25T03:45:47.286Z,20.10
2023-01-25T03:46:47.344Z,21.80
2023-01-25T03:47:47.277Z,23.60
2023-01-25T03:48:47.239Z,20.20
2023-01-25T03:49:47.233Z,20.10
2023-01-25T03:50:47.219Z,19.00
2023-01-25T03:51:47.205Z,18.20
2023-01-25T03:52:47.223Z,17.40
2023-01-25T03:53:47.229Z,18.30
2023-01-25T03:54:47.172Z,16.20
2023-01-25T03:55:48.272Z,16.30
2023-01-25T03:56:47.150Z,15.70
2023-01-25T03:57:47.125Z,15.80
2023-01-25T03:58:47.136Z,16.50
2023-01-25T03:59:47.117Z,16.50
2023-01-25T04:00:47.249Z,16.20
2023-01-25T04:01:47.073Z,14.90
2023-01-25T04:02:47.060Z,16.90
2023-01-25T04:03:47.062Z,17.70
2023-01-25T04:04:47.036Z,16.90
2023-01-25T04:05:47.027Z,17.80
2023-01-25T04:06:47.014Z,16.90
2023-01-25T04:07:47.022Z,18.00
2023-01-25T04:08:47.028Z,17.20
2023-01-25T04:09:47.013Z,16.50
2023-01-25T04:10:46.960Z,16.30
2023-01-25T04:11:46.950Z,17.70
2023-01-25T04:12:46.947Z,17.20
2023-01-25T04:13:46.943Z,15.90
2023-01-25T04:14:46.912Z,17.40
2023-01-25T04:15:46.897Z,17.00
2023-01-25T04:16:46.917Z,16.40
2023-01-25T04:17:46.869Z,15.90
2023-01-25T04:18:46.876Z,15.50
2023-01-25T04:19:46.840Z,15.60
2023-01-25T04:20:46.836Z,15.40
2023-01-25T04:21:46.825Z,15.50
2023-01-25T04:22:46.808Z,18.00
2023-01-25T04:23:46.898Z,14.90
2023-01-25T04:24:46.785Z,15.20
2023-01-25T04:25:46.798Z,16.00
2023-01-25T04:26:46.758Z,15.90
2023-01-25T04:27:46.749Z,15.60
2023-01-25T04:28:46.745Z,15.10
2023-01-25T04:29:46.717Z,16.10
2023-01-25T04:30:46.705Z,14.90
2023-01-25T04:31:46.824Z,14.30
2023-01-25T04:32:46.821Z,17.10
2023-01-25T04:33:46.686Z,16.90
2023-01-25T04:34:46.656Z,16.60
2023-01-25T04:35:46.643Z,16.20
2023-01-25T04:36:46.628Z,16.70
2023-01-25T04:37:46.613Z,15.90
2023-01-25T04:38:46.617Z,16.40
2023-01-25T04:39:46.596Z,15.40
2023-01-25T04:40:46.598Z,15.80
2023-01-25T04:41:46.585Z,15.60
2023-01-25T04:42:46.552Z,16.90
2023-01-25T04:43:46.552Z,16.00
2023-01-25T04:44:46.528Z,15.10
2023-01-25T04:45:46.552Z,15.50
2023-01-25T04:46:46.504Z,16.40
2023-01-25T04:47:46.487Z,15.50
2023-01-25T04:48:46.492Z,16.30
2023-01-25T04:49:46.466Z,17.40
2023-01-25T04:50:46.456Z,16.60
2023-01-25T04:51:46.440Z,16.20
2023-01-25T04:52:46.430Z,17.30
2023-01-25T04:53:46.432Z,16.20
2023-01-25T04:54:46.401Z,16.70
2023-01-25T04:55:46.415Z,17.00
2023-01-25T04:56:46.377Z,17.90
2023-01-25T04:57:46.389Z,17.60
2023-01-25T04:58:46.386Z,18.50
2023-01-25T04:59:46.347Z,18.10
2023-01-25T05:00:46.321Z,17.30
2023-01-25T05:01:46.310Z,16.50
2023-01-25T05:02:46.419Z,15.70
2023-01-25T05:03:46.304Z,16.00
2023-01-25T05:04:46.274Z,13.80
2023-01-25T05:05:46.261Z,14.70
2023-01-25T05:06:46.247Z,15.60
2023-01-25T05:07:46.236Z,15.50
2023-01-25T05:08:46.232Z,15.90
2023-01-25T05:09:46.208Z,14.30
2023-01-25T05:10:46.198Z,16.00
2023-01-25T05:11:46.183Z,16.00
2023-01-25T05:12:46.172Z,16.90
2023-01-25T05:13:46.220Z,16.70
2023-01-25T05:14:46.150Z,16.40
2023-01-25T05:15:46.129Z,16.70
2023-01-25T05:16:46.212Z,16.90
2023-01-25T05:17:46.108Z,17.10
2023-01-25T05:18:49.186Z,18.10
2023-01-25T05:19:46.095Z,16.70
2023-01-25T05:20:46.068Z,18.20
2023-01-25T05:21:46.055Z,18.60
2023-01-25T05:22:46.042Z,17.50
2023-01-25T05:23:46.057Z,17.80
2023-01-25T05:24:46.034Z,19.20
2023-01-25T05:25:46.009Z,18.60
2023-01-25T05:26:46.007Z,17.90
2023-01-25T05:27:45.978Z,18.10
2023-01-25T05:28:45.972Z,16.90
2023-01-25T05:29:45.989Z,16.00
2023-01-25T05:30:45.991Z,16.50
2023-01-25T05:31:45.969Z,14.90
2023-01-25T05:32:45.924Z,17.00
2023-01-25T05:33:45.905Z,17.90
2023-01-25T05:34:45.910Z,17.50
2023-01-25T05:35:45.879Z,18.30
2023-01-25T05:36:45.867Z,18.00
2023-01-25T05:37:45.857Z,17.70
2023-01-25T05:38:45.839Z,16.60
2023-01-25T05:39:45.848Z,18.50
2023-01-25T05:40:45.810Z,20.00
2023-01-25T05:41:45.810Z,18.10
2023-01-25T05:42:45.790Z,20.10
2023-01-25T05:43:45.771Z,18.30
2023-01-25T05:44:47.461Z,18.80
2023-01-25T05:45:45.824Z,18.50
2023-01-25T05:46:45.737Z,17.80
2023-01-25T05:47:45.725Z,18.90
2023-01-25T05:48:45.729Z,18.10
2023-01-25T05:49:45.727Z,18.70
2023-01-25T05:50:45.699Z,17.70
2023-01-25T05:51:45.672Z,17.80
2023-01-25T05:52:45.661Z,17.30
2023-01-25T05:53:45.652Z,17.60
2023-01-25T05:54:45.654Z,16.20
2023-01-25T05:55:45.621Z,16.80
2023-01-25T05:56:45.613Z,17.50
2023-01-25T05:57:45.598Z,15.90
2023-01-25T05:58:45.598Z,17.50
2023-01-25T05:59:45.609Z,17.10
2023-01-25T06:00:45.565Z,16.70
2023-01-25T06:01:45.572Z,16.50
2023-01-25T06:02:45.662Z,17.30
2023-01-25T06:03:45.571Z,16.90
2023-01-25T06:04:45.507Z,17.40
2023-01-25T06:05:45.508Z,17.50
2023-01-25T06:06:45.488Z,17.30
2023-01-25T06:07:45.468Z,18.60
2023-01-25T06:08:45.457Z,16.50
2023-01-25T06:09:45.453Z,19.70
2023-01-25T06:10:45.452Z,18.20
2023-01-25T06:11:45.420Z,16.60
2023-01-25T06:12:45.406Z,17.00
2023-01-25T06:13:45.395Z,17.30
2023-01-25T06:14:45.379Z,18.20
2023-01-25T06:15:45.419Z,18.60
2023-01-25T06:16:45.364Z,17.20
2023-01-25T06:17:45.364Z,17.10
2023-01-25T06:18:45.331Z,18.00
2023-01-25T06:19:45.319Z,17.80
2023-01-25T06:20:45.320Z,18.10
2023-01-25T06:21:45.295Z,16.80
2023-01-25T06:22:45.285Z,17.20
2023-01-25T06:23:45.453Z,15.80
2023-01-25T06:24:45.259Z,17.60
2023-01-25T06:25:45.253Z,17.20
2023-01-25T06:26:45.231Z,17.00
2023-01-25T06:27:45.216Z,16.10
2023-01-25T06:28:45.200Z,17.60
2023-01-25T06:29:45.212Z,17.50
2023-01-25T06:30:45.275Z,16.10
2023-01-25T06:31:45.302Z,18.80
2023-01-25T06:32:45.171Z,18.10
2023-01-25T06:33:45.167Z,17.60
2023-01-25T06:34:45.130Z,18.10
2023-01-25T06:35:45.128Z,19.20
2023-01-25T06:36:45.123Z,17.60
2023-01-25T06:37:45.087Z,17.80
2023-01-25T06:38:45.844Z,19.50
2023-01-25T06:39:45.063Z,16.70
2023-01-25T06:40:45.073Z,19.00
2023-01-25T06:41:45.040Z,19.20
2023-01-25T06:42:45.025Z,16.90
2023-01-25T06:43:45.014Z,18.80
2023-01-25T06:44:45.004Z,17.70
2023-01-25T06:45:45.005Z,17.70
2023-01-25T06:46:45.025Z,19.10
2023-01-25T06:47:44.965Z,18.70
2023-01-25T06:48:44.953Z,20.20
2023-01-25T06:49:44.979Z,17.30
2023-01-25T06:50:44.942Z,16.60
2023-01-25T06:51:44.930Z,18.80
2023-01-25T06:52:44.903Z,19.70
2023-01-25T06:53:44.885Z,19.40
2023-01-25T06:54:44.881Z,19.50
2023-01-25T06:55:44.885Z,19.30
2023-01-25T06:56:44.847Z,19.80
2023-01-25T06:57:44.832Z,18.90
2023-01-25T06:58:44.822Z,19.90
2023-01-25T06:59:44.815Z,19.10
2023-01-25T07:00:44.809Z,18.80
2023-01-25T07:01:44.820Z,20.10
2023-01-25T07:02:44.811Z,21.40
2023-01-25T07:03:44.773Z,19.80
2023-01-25T07:04:44.748Z,19.20
2023-01-25T07:05:44.767Z,20.10
2023-01-25T07:06:44.720Z,20.30
2023-01-25T07:07:44.712Z,18.50
2023-01-25T07:08:44.701Z,18.40
2023-01-25T07:09:44.679Z,18.90
2023-01-25T07:10:44.683Z,17.70
2023-01-25T07:11:44.659Z,19.90
2023-01-25T07:12:44.651Z,21.90
2023-01-25T07:13:44.633Z,20.80
2023-01-25T07:14:44.629Z,21.30
2023-01-25T07:15:44.683Z,19.70
2023-01-25T07:16:44.599Z,19.40
2023-01-25T07:17:44.583Z,21.00
2023-01-25T07:18:44.600Z,19.80
2023-01-25T07:19:44.557Z,20.70
2023-01-25T07:20:44.553Z,18.90
2023-01-25T07:21:44.573Z,20.40
2023-01-25T07:22:44.527Z,22.50
2023-01-25T07:23:44.583Z,19.00
2023-01-25T07:24:44.491Z,20.20
2023-01-25T07:25:44.478Z,18.90
2023-01-25T07:26:44.522Z,18.60
2023-01-25T07:27:44.474Z,18.20
2023-01-25T07:28:44.461Z,18.50
2023-01-25T07:29:44.436Z,18.50
2023-01-25T07:30:44.425Z,17.40
2023-01-25T07:31:44.505Z,17.40
2023-01-25T07:32:44.395Z,18.20
2023-01-25T07:33:44.372Z,17.00
2023-01-25T07:34:44.366Z,17.60
2023-01-25T07:35:44.354Z,17.30
2023-01-25T07:36:44.357Z,17.10
2023-01-25T07:37:44.364Z,17.60
2023-01-25T07:38:44.316Z,19.30
2023-01-25T07:39:44.297Z,17.30
2023-01-25T07:40:44.287Z,18.50
2023-01-25T07:41:44.291Z,17.10
2023-01-25T07:42:44.260Z,16.50
2023-01-25T07:43:44.245Z,18.80
2023-01-25T07:44:44.237Z,17.50
2023-01-25T07:45:44.221Z,17.90
2023-01-25T07:46:44.234Z,17.30
2023-01-25T07:47:44.202Z,19.70
2023-01-25T07:48:44.200Z,18.50
2023-01-25T07:49:44.181Z,19.80
2023-01-25T07:50:44.164Z,17.90
2023-01-25T07:51:44.167Z,19.80
2023-01-25T07:52:44.135Z,20.50
2023-01-25T07:53:44.139Z,18.40
2023-01-25T07:54:44.112Z,17.00
2023-01-25T07:55:44.128Z,17.20
2023-01-25T07:56:44.102Z,19.00
2023-01-25T07:57:44.073Z,16.90
2023-01-25T07:58:44.061Z,18.20
2023-01-25T07:59:44.048Z,17.20
2023-01-25T08:00:44.037Z,17.40
2023-01-25T08:01:44.083Z,18.20
2023-01-25T08:02:44.012Z,15.70
2023-01-25T08:03:44.027Z,17.80
2023-01-25T08:04:43.982Z,17.00
2023-01-25T08:05:43.977Z,17.60
2023-01-25T08:06:43.972Z,17.20
2023-01-25T08:07:43.948Z,15.70
2023-01-25T08:08:43.932Z,16.50
2023-01-25T08:09:43.956Z,16.60
2023-01-25T08:10:43.943Z,16.60
2023-01-25T08:11:43.913Z,18.00
2023-01-25T08:12:43.886Z,17.30
2023-01-25T08:13:43.873Z,16.90
2023-01-25T08:14:43.853Z,17.00
2023-01-25T08:15:43.851Z,16.10
2023-01-25T08:16:43.851Z,18.40
2023-01-25T08:17:43.828Z,17.60
2023-01-25T08:18:43.817Z,16.20
2023-01-25T08:19:43.796Z,18.10
2023-01-25T08:20:43.777Z,17.40
2023-01-25T08:21:43.785Z,18.30
2023-01-25T08:22:43.759Z,20.00
2023-01-25T08:23:43.743Z,20.40
2023-01-25T08:24:43.784Z,17.80
2023-01-25T08:25:43.747Z,19.30
2023-01-25T08:26:43.742Z,18.20
2023-01-25T08:27:43.704Z,17.80
2023-01-25T08:28:43.681Z,17.30
2023-01-25T08:29:43.677Z,16.90
2023-01-25T08:30:56.583Z,14.80
2023-01-25T08:31:43.753Z,18.20
2023-01-25T08:32:43.626Z,21.50
2023-01-25T08:33:43.619Z,16.30
2023-01-25T08:34:43.604Z,16.80
2023-01-25T08:35:43.600Z,16.70
2023-01-25T08:36:43.624Z,15.60
2023-01-25T08:37:43.567Z,16.90
2023-01-25T08:38:43.549Z,16.90
2023-01-25T08:39:43.554Z,17.00
2023-01-25T08:40:43.533Z,16.90
2023-01-25T08:41:43.555Z,16.40
2023-01-25T08:42:43.522Z,15.60
2023-01-25T08:43:43.506Z,15.80
2023-01-25T08:44:43.484Z,16.60
2023-01-25T08:45:43.485Z,17.80
2023-01-25T08:46:43.466Z,16.60
2023-01-25T08:47:43.440Z,15.60
2023-01-25T08:48:43.443Z,17.30
2023-01-25T08:49:43.418Z,18.70
2023-01-25T08:50:43.409Z,20.60
2023-01-25T08:51:43.409Z,17.70
2023-01-25T08:52:43.372Z,24.20
2023-01-25T08:53:43.393Z,25.00
2023-01-25T08:54:43.354Z,26.20
2023-01-25T08:55:43.337Z,25.10
2023-01-25T08:56:43.339Z,32.20
2023-01-25T08:57:43.338Z,33.40
2023-01-25T08:58:43.305Z,33.30
2023-01-25T08:59:43.291Z,33.30
2023-01-25T09:00:43.300Z,21.40
2023-01-25T09:01:43.264Z,17.50
2023-01-25T09:02:43.263Z,17.00
2023-01-25T09:03:43.370Z,17.10
2023-01-25T09:04:43.223Z,17.40
2023-01-25T09:05:43.212Z,17.20
2023-01-25T09:06:43.199Z,16.60
2023-01-25T09:07:43.203Z,17.10
2023-01-25T09:08:43.178Z,16.80
2023-01-25T09:09:43.164Z,15.90
2023-01-25T09:10:43.150Z,15.50
2023-01-25T09:11:43.148Z,15.20
2023-01-25T09:12:43.155Z,15.80
2023-01-25T09:13:43.132Z,15.80
2023-01-25T09:14:43.099Z,16.60
2023-01-25T09:15:43.093Z,15.20
2023-01-25T09:16:43.071Z,15.60
2023-01-25T09:17:43.075Z,17.00
2023-01-25T09:18:43.046Z,15.00
2023-01-25T09:19:43.042Z,16.10
2023-01-25T09:20:43.018Z,16.20
2023-01-25T09:21:43.012Z,15.60
2023-01-25T09:22:43.011Z,16.80
2023-01-25T09:23:50.979Z,16.20
2023-01-25T09:24:43.001Z,17.30
2023-01-25T09:25:42.955Z,17.70
2023-01-25T09:26:47.814Z,15.80
2023-01-25T09:27:42.949Z,15.40
2023-01-25T09:28:42.919Z,16.30
2023-01-25T09:29:49.560Z,16.40
2023-01-25T09:30:47.927Z,16.30
2023-01-25T09:31:42.993Z,15.10
2023-01-25T09:32:43.073Z,18.40
2023-01-25T09:33:42.920Z,17.60
2023-01-25T09:34:42.841Z,16.40
2023-01-25T09:35:42.834Z,15.90
2023-01-25T09:36:42.832Z,17.80
2023-01-25T09:37:42.823Z,20.00
2023-01-25T09:38:42.792Z,18.60
2023-01-25T09:39:42.776Z,18.20
2023-01-25T09:40:42.762Z,17.10
2023-01-25T09:41:42.802Z,16.40
2023-01-25T09:42:42.775Z,19.10
2023-01-25T09:43:42.723Z,17.50
2023-01-25T09:44:42.723Z,18.30
2023-01-25T09:45:42.724Z,17.60
2023-01-25T09:46:42.737Z,17.40
2023-01-25T09:47:42.680Z,16.70
2023-01-25T09:48:42.683Z,15.20
2023-01-25T09:49:42.653Z,15.80
2023-01-25T09:50:42.650Z,14.20
2023-01-25T09:51:42.644Z,15.60
2023-01-25T09:52:42.623Z,16.70
2023-01-25T09:53:42.621Z,16.20
2023-01-25T09:54:46.970Z,14.90
2023-01-25T09:55:42.572Z,15.30
2023-01-25T09:56:42.561Z,15.40
2023-01-25T09:57:42.551Z,15.70
2023-01-25T09:58:42.549Z,14.90
2023-01-25T09:59:42.529Z,17.00
2023-01-25T10:00:42.510Z,15.90
2023-01-25T10:01:42.745Z,16.90
2023-01-25T10:02:42.622Z,16.10
2023-01-25T10:03:42.488Z,16.30
2023-01-25T10:04:42.460Z,17.10
2023-01-25T10:05:42.468Z,15.90
2023-01-25T10:06:48.777Z,16.60
2023-01-25T10:07:42.428Z,15.80
2023-01-25T10:08:42.422Z,15.70
2023-01-25T10:09:42.397Z,16.70
2023-01-25T10:10:42.397Z,15.60
2023-01-25T10:11:44.565Z,16.00
2023-01-25T10:12:42.354Z,17.10
2023-01-25T10:13:42.364Z,15.30
2023-01-25T10:14:42.337Z,15.10
2023-01-25T10:15:42.368Z,15.40
2023-01-25T10:16:42.358Z,16.30
2023-01-25T10:17:42.368Z,15.60
2023-01-25T10:18:42.304Z,14.80
2023-01-25T10:19:42.271Z,15.10
2023-01-25T10:20:42.256Z,14.60
2023-01-25T10:21:42.243Z,14.40
2023-01-25T10:22:42.246Z,16.00
2023-01-25T10:23:42.237Z,13.90
2023-01-25T10:24:42.207Z,13.80
2023-01-25T10:25:42.200Z,14.40
2023-01-25T10:26:42.183Z,14.10
2023-01-25T10:27:42.165Z,14.90
2023-01-25T10:28:42.212Z,14.40
2023-01-25T10:29:42.142Z,15.00
2023-01-25T10:30:42.157Z,13.80
2023-01-25T10:31:42.140Z,14.50
2023-01-25T10:32:55.324Z,14.50
2023-01-25T10:33:42.127Z,13.50
2023-01-25T10:34:55.393Z,12.90
2023-01-25T10:35:45.022Z,14.00
2023-01-25T10:36:42.051Z,14.90
2023-01-25T10:37:42.044Z,14.50
2023-01-25T10:38:42.050Z,13.80
2023-01-25T10:39:42.024Z,13.90
2023-01-25T10:40:41.999Z,13.80
2023-01-25T10:41:41.992Z,13.50
2023-01-25T10:42:41.980Z,13.20
2023-01-25T10:43:41.981Z,13.30
2023-01-25T10:44:42.148Z,12.60
2023-01-25T10:45:41.936Z,11.60
2023-01-25T10:46:42.003Z,12.50
2023-01-25T10:47:41.915Z,12.80
2023-01-25T10:48:41.938Z,13.10
2023-01-25T10:49:41.914Z,12.30
2023-01-25T10:50:41.877Z,12.80
2023-01-25T10:51:41.880Z,12.00
2023-01-25T10:52:41.848Z,12.60
2023-01-25T10:53:41.850Z,13.40
2023-01-25T10:54:41.853Z,16.20
2023-01-25T10:55:41.811Z,13.10
2023-01-25T10:56:41.799Z,14.40
2023-01-25T10:57:41.786Z,14.20
2023-01-25T10:58:41.771Z,13.50
2023-01-25T10:59:41.771Z,15.60
2023-01-25T11:00:41.748Z,16.10
2023-01-25T11:01:41.796Z,14.60
2023-01-25T11:02:41.821Z,14.40
2023-01-25T11:03:41.760Z,15.80
2023-01-25T11:04:43.028Z,15.40
2023-01-25T11:05:41.722Z,16.50
2023-01-25T11:06:41.673Z,14.90
2023-01-25T11:07:41.660Z,14.60
2023-01-25T11:08:41.643Z,14.10
2023-01-25T11:09:41.655Z,14.80
2023-01-25T11:10:41.622Z,17.50
2023-01-25T11:11:41.719Z,15.80
2023-01-25T11:12:41.598Z,16.50
2023-01-25T11:13:41.600Z,15.70
2023-01-25T11:14:41.581Z,15.80
2023-01-25T11:15:41.718Z,15.70
2023-01-25T11:16:41.605Z,15.60
2023-01-25T11:17:41.536Z,17.50
2023-01-25T11:18:41.519Z,17.00
2023-01-25T11:19:41.528Z,14.70
2023-01-25T11:20:41.488Z,17.30
2023-01-25T11:21:41.496Z,15.40
2023-01-25T11:22:41.473Z,15.10
2023-01-25T11:23:41.454Z,15.40
2023-01-25T11:24:41.454Z,13.90
2023-01-25T11:25:41.450Z,15.10
2023-01-25T11:26:41.418Z,14.80
2023-01-25T11:27:41.418Z,15.30
2023-01-25T11:28:41.388Z,14.60
2023-01-25T11:29:41.398Z,14.60
2023-01-25T11:30:41.387Z,14.70
2023-01-25T11:31:41.442Z,16.00
2023-01-25T11:32:41.360Z,13.90
2023-01-25T11:33:41.330Z,16.40
2023-01-25T11:34:41.325Z,15.70
2023-01-25T11:35:41.300Z,15.30
2023-01-25T11:36:41.288Z,16.00
2023-01-25T11:37:41.294Z,15.80
2023-01-25T11:38:41.262Z,16.40
2023-01-25T11:39:41.267Z,15.00
2023-01-25T11:40:41.265Z,17.40
2023-01-25T11:41:41.236Z,15.50
2023-01-25T11:42:41.221Z,15.00
2023-01-25T11:43:41.249Z,14.30
2023-01-25T11:44:41.227Z,17.40
2023-01-25T11:45:41.203Z,14.20
2023-01-25T11:46:41.238Z,14.60
2023-01-25T11:47:41.172Z,16.30
2023-01-25T11:48:41.133Z,15.20
2023-01-25T11:49:41.146Z,16.50
2023-01-25T11:50:41.120Z,16.70
2023-01-25T11:51:41.121Z,16.50
2023-01-25T11:52:41.086Z,17.90
2023-01-25T11:53:41.197Z,17.80
2023-01-25T11:54:41.080Z,16.20
2023-01-25T11:55:41.043Z,16.50
2023-01-25T11:56:41.039Z,17.00
2023-01-25T11:57:41.023Z,17.10
2023-01-25T11:58:41.007Z,17.00
2023-01-25T11:59:41.006Z,17.80
2023-01-25T12:00:40.981Z,18.50
2023-01-25T12:01:40.972Z,17.70
2023-01-25T12:02:40.978Z,17.00
2023-01-25T12:03:40.998Z,17.70
2023-01-25T12:04:40.951Z,15.50
2023-01-25T12:05:40.924Z,17.20
2023-01-25T12:06:40.905Z,17.90
2023-01-25T12:07:40.900Z,16.40
2023-01-25T12:08:40.886Z,19.00
2023-01-25T12:09:40.922Z,16.50
2023-01-25T12:10:40.865Z,17.50
2023-01-25T12:11:40.840Z,17.90
2023-01-25T12:12:40.828Z,17.90
2023-01-25T12:13:40.833Z,18.60
2023-01-25T12:14:40.807Z,17.40
2023-01-25T12:15:40.801Z,18.80
2023-01-25T12:16:40.781Z,16.80
2023-01-25T12:17:40.767Z,16.70
2023-01-25T12:18:40.760Z,16.70
2023-01-25T12:19:40.739Z,17.40
2023-01-25T12:20:40.742Z,17.80
2023-01-25T12:21:40.715Z,18.50
2023-01-25T12:22:40.716Z,18.70
2023-01-25T12:23:40.717Z,17.70
2023-01-25T12:24:40.681Z,17.50
2023-01-25T12:25:40.693Z,17.50
2023-01-25T12:26:40.655Z,17.70
2023-01-25T12:27:40.638Z,17.30
2023-01-25T12:28:40.626Z,18.20
2023-01-25T12:29:40.615Z,18.00
2023-01-25T12:30:40.636Z,17.00
2023-01-25T12:31:40.693Z,18.40
2023-01-25T12:32:40.576Z,17.70
2023-01-25T12:33:40.561Z,16.60
2023-01-25T12:34:40.556Z,21.70
2023-01-25T12:35:40.549Z,18.30
2023-01-25T12:36:40.538Z,18.20
2023-01-25T12:37:40.511Z,17.40
2023-01-25T12:38:40.500Z,19.10
2023-01-25T12:39:40.481Z,18.40
2023-01-25T12:40:40.486Z,19.60
2023-01-25T12:41:40.483Z,19.20
2023-01-25T12:42:40.454Z,18.50
2023-01-25T12:43:40.431Z,16.90
2023-01-25T12:44:40.423Z,17.20
2023-01-25T12:45:40.425Z,17.20
2023-01-25T12:46:40.512Z,17.90
2023-01-25T12:47:40.395Z,18.80
2023-01-25T12:48:40.376Z,18.40
2023-01-25T12:49:40.354Z,20.40
2023-01-25T12:50:40.358Z,19.60
2023-01-25T12:51:40.349Z,19.80
2023-01-25T12:52:40.332Z,21.90